Russian_Dream_Pilot’s ATC Tracking Thread - [CLOSED] @NA

  • Server - Training

  • Airport - ESSA (Stockholm Arlanda)

  • Frequencies - Tower / Ground

  • Runways - 01L and 01R for departure / approach

  • Duration -2021-04-14T15:23:00Z2021-04-14T16:20:00Z

  • NOTAMs - Expect any runways for Pattern Work, and use only for this “Remaing in the pattern”

Current METAR - ESSA 141450Z 34008KT CAVOK 07/M06 Q1026 R88/09//95 NOSIG

I need to work out the Transition, Sequence and Departure.

4 Likes

Ok @Russian_Dream_Pilot

1 Like

Now open in OMDB!

On my way!

You’re good, I crashed at the end there.
Really you should just apply for IFATC from now.

No, I’m not good, because I said “enter left downwind 30L”, because I thought you would fly through the airport, but you went for “right downwind”. Also since you said Touch & Go, I should have “Cleared for the option, after the option make left traffic”.

About IFATC, I will take the Written Exam tomorrow

sorry lmao im hungry so i aint focused

I opened in ESSA

This topic was automatically closed 90 days after the last reply. New replies are no longer allowed.